createdAt,value
2023-04-13T00:03:18.352Z,2.53
2023-04-13T00:08:43.177Z,1.67
2023-04-13T00:14:05.121Z,2.22
2023-04-13T00:19:26.935Z,0.55
2023-04-13T00:24:49.006Z,1.58
2023-04-13T00:30:16.454Z,0.63
2023-04-13T00:35:40.394Z,1.85
2023-04-13T00:41:02.643Z,2.53
2023-04-13T00:46:24.980Z,0.90
2023-04-13T00:51:46.840Z,1.25
2023-04-13T00:57:08.957Z,1.77
2023-04-13T01:02:31.815Z,0.98
2023-04-13T01:08:09.431Z,1.45
2023-04-13T01:13:57.095Z,1.42
2023-04-13T01:19:41.175Z,1.63
2023-04-13T01:25:22.746Z,0.73
2023-04-13T01:30:46.583Z,2.10
2023-04-13T01:36:11.095Z,1.02
2023-04-13T01:41:32.902Z,1.67
2023-04-13T01:47:01.781Z,1.30
2023-04-13T01:52:28.085Z,1.27
2023-04-13T01:57:54.595Z,2.45
2023-04-13T02:03:16.762Z,1.10
2023-04-13T02:08:38.712Z,2.25
2023-04-13T02:14:00.687Z,0.80
2023-04-13T02:19:25.623Z,1.48
2023-04-13T02:24:47.839Z,4.75
2023-04-13T02:30:10.236Z,3.92
2023-04-13T02:35:32.650Z,1.02
2023-04-13T02:41:00.873Z,1.88
2023-04-13T02:46:23.921Z,1.77
2023-04-13T02:51:46.158Z,1.52
2023-04-13T02:57:08.010Z,0.50
2023-04-13T03:02:30.527Z,2.42
2023-04-13T03:07:52.561Z,1.35
2023-04-13T03:13:14.396Z,1.45
2023-04-13T03:18:36.704Z,2.00
2023-04-13T03:23:58.836Z,1.88
2023-04-13T03:29:21.134Z,0.82
2023-04-13T03:34:44.624Z,2.75
2023-04-13T03:40:10.661Z,0.88
2023-04-13T03:45:32.509Z,1.27
2023-04-13T03:50:54.324Z,2.35
2023-04-13T03:56:16.202Z,1.23
2023-04-13T04:01:38.425Z,0.77
2023-04-13T04:07:00.498Z,1.17
2023-04-13T04:12:22.334Z,1.80
2023-04-13T04:17:44.268Z,1.55
2023-04-13T04:23:06.376Z,2.10
2023-04-13T04:28:30.746Z,1.08
2023-04-13T04:33:52.556Z,0.60
2023-04-13T04:39:15.050Z,1.00
2023-04-13T04:44:37.744Z,1.02
2023-04-13T04:49:59.636Z,1.38
2023-04-13T04:55:21.520Z,2.08
2023-04-13T05:00:43.340Z,1.08
2023-04-13T05:06:05.334Z,1.98
2023-04-13T05:11:27.356Z,0.80
2023-04-13T05:16:49.160Z,1.58
2023-04-13T05:22:15.783Z,0.65
2023-04-13T05:27:37.695Z,1.70
2023-04-13T05:33:02.306Z,24.23
2023-04-13T05:38:24.627Z,12.90
2023-04-13T05:43:46.495Z,13.77
2023-04-13T05:49:08.643Z,10.48
2023-04-13T05:54:30.683Z,11.07
2023-04-13T05:59:53.652Z,8.45
2023-04-13T06:05:16.360Z,10.45
2023-04-13T06:10:38.207Z,7.97
2023-04-13T06:16:00.315Z,9.02
2023-04-13T06:21:22.370Z,9.13
2023-04-13T06:26:44.421Z,14.02
2023-04-13T06:32:07.803Z,9.52
2023-04-13T06:37:30.549Z,11.57
2023-04-13T06:42:52.655Z,9.95
2023-04-13T06:48:14.473Z,5.72
2023-04-13T06:53:36.337Z,4.38
2023-04-13T06:59:02.550Z,5.22
2023-04-13T07:04:28.124Z,5.90
2023-04-13T07:09:51.361Z,3.10
2023-04-13T07:15:13.298Z,2.83
2023-04-13T07:20:35.978Z,6.30
2023-04-13T07:25:58.931Z,2.92
2023-04-13T07:31:21.319Z,5.75
2023-04-13T07:36:43.973Z,8.98
2023-04-13T07:42:05.996Z,3.38
2023-04-13T07:47:27.955Z,8.75
2023-04-13T07:52:49.919Z,8.00
2023-04-13T07:58:11.824Z,7.18
2023-04-13T08:03:36.543Z,6.18
2023-04-13T08:08:58.764Z,5.63
2023-04-13T08:14:20.750Z,5.60
2023-04-13T08:19:42.591Z,6.40
2023-04-13T08:25:07.142Z,4.32
2023-04-13T08:30:33.371Z,5.15
2023-04-13T08:35:55.922Z,7.82
2023-04-13T08:41:18.169Z,9.13
2023-04-13T08:46:46.224Z,5.25
2023-04-13T08:52:10.158Z,4.30
2023-04-13T08:57:32.714Z,6.88
2023-04-13T09:03:05.597Z,2.90
2023-04-13T09:08:34.953Z,3.47
2023-04-13T09:13:57.531Z,6.03
2023-04-13T09:19:33.090Z,4.00
2023-04-13T09:24:55.064Z,4.60
2023-04-13T09:30:20.664Z,3.75
2023-04-13T09:41:04.337Z,19.15
2023-04-13T09:46:26.905Z,11.20
2023-04-13T09:51:48.890Z,9.57
2023-04-13T09:57:11.232Z,14.45
2023-04-13T10:02:34.192Z,8.55
2023-04-13T10:07:56.529Z,11.60
2023-04-13T10:13:26.456Z,11.63
2023-04-13T10:19:10.002Z,11.98
2023-04-13T10:24:31.968Z,11.00
2023-04-13T10:29:54.860Z,17.35
2023-04-13T10:35:17.120Z,12.65
2023-04-13T10:40:46.080Z,9.32
2023-04-13T10:46:15.308Z,12.65
2023-04-13T10:51:42.199Z,16.77
2023-04-13T10:57:06.799Z,9.95
2023-04-13T11:02:33.149Z,8.13
2023-04-13T11:07:55.861Z,12.18
2023-04-13T11:13:17.846Z,6.68
2023-04-13T11:18:39.924Z,8.68
2023-04-13T11:24:05.133Z,5.25
2023-04-13T11:29:27.897Z,6.95
2023-04-13T11:34:50.787Z,6.50
2023-04-13T11:40:17.533Z,9.20
2023-04-13T11:45:39.573Z,7.13
2023-04-13T11:51:02.127Z,6.72
2023-04-13T11:56:24.164Z,6.03
2023-04-13T12:01:55.218Z,3.45
2023-04-13T12:07:25.625Z,4.20
2023-04-13T12:12:57.090Z,4.10
2023-04-13T12:18:26.039Z,3.85
2023-04-13T12:23:59.180Z,3.47
2023-04-13T12:29:22.642Z,2.83
2023-04-13T12:34:45.099Z,5.15
2023-04-13T12:40:13.004Z,5.28
2023-04-13T12:45:34.924Z,3.35
2023-04-13T12:50:56.795Z,9.82
2023-04-13T12:56:18.736Z,5.90
2023-04-13T13:01:40.622Z,3.17
2023-04-13T13:07:02.678Z,7.20
2023-04-13T13:12:30.096Z,4.45
2023-04-13T13:17:52.744Z,3.97
2023-04-13T13:23:14.726Z,5.68
2023-04-13T13:28:36.649Z,4.53
2023-04-13T13:33:58.473Z,4.63
2023-04-13T13:39:23.187Z,4.78
2023-04-13T13:44:45.054Z,1.97
2023-04-13T13:50:08.430Z,3.22
2023-04-13T13:55:31.242Z,3.10
2023-04-13T14:00:53.126Z,3.35
2023-04-13T14:06:14.947Z,4.47
2023-04-13T14:11:37.020Z,3.28
2023-04-13T14:16:58.863Z,2.22
2023-04-13T14:22:21.683Z,4.15
2023-04-13T14:27:43.577Z,2.17
2023-04-13T14:33:06.439Z,3.13
2023-04-13T14:38:29.099Z,5.10
2023-04-13T14:43:51.266Z,3.20
2023-04-13T14:49:13.110Z,2.40
2023-04-13T14:54:35.366Z,3.25
2023-04-13T14:59:57.357Z,2.15
2023-04-13T15:05:19.394Z,5.60
2023-04-13T15:10:41.930Z,3.97
2023-04-13T15:16:04.439Z,4.63
2023-04-13T15:21:27.867Z,2.17
2023-04-13T15:26:49.847Z,4.20
2023-04-13T15:32:11.999Z,2.10
2023-04-13T15:37:33.822Z,3.33
2023-04-13T15:42:55.705Z,2.05
2023-04-13T15:48:19.204Z,6.40
2023-04-13T15:53:41.299Z,9.32
2023-04-13T15:59:03.273Z,5.25
2023-04-13T16:04:25.182Z,4.63
2023-04-13T16:09:48.784Z,4.47
2023-04-13T16:15:12.262Z,3.75
2023-04-13T16:20:34.083Z,5.22
2023-04-13T16:25:56.230Z,8.13
2023-04-13T16:31:18.174Z,11.65
2023-04-13T16:36:40.086Z,10.55
2023-04-13T16:42:02.688Z,12.93
2023-04-13T16:47:25.306Z,13.25
2023-04-13T16:52:47.225Z,11.40
2023-04-13T16:58:10.303Z,13.05
2023-04-13T17:03:32.455Z,12.88
2023-04-13T17:08:54.501Z,14.38
2023-04-13T17:14:16.345Z,13.20
2023-04-13T17:19:38.197Z,12.77
2023-04-13T17:25:00.226Z,8.73
2023-04-13T17:30:22.883Z,11.10
2023-04-13T17:35:44.764Z,18.42
2023-04-13T17:41:07.027Z,17.77
2023-04-13T17:46:30.193Z,13.07
2023-04-13T17:51:52.158Z,17.95
2023-04-13T17:57:14.148Z,13.38
2023-04-13T18:02:36.360Z,10.93
2023-04-13T18:07:58.768Z,26.13
2023-04-13T18:13:21.312Z,15.68
2023-04-13T18:18:43.161Z,14.50
2023-04-13T18:24:06.005Z,17.88
2023-04-13T18:29:27.875Z,17.92
2023-04-13T18:34:50.312Z,11.40
2023-04-13T18:40:12.766Z,12.77
2023-04-13T18:45:35.137Z,12.77
2023-04-13T18:50:57.035Z,12.23
2023-04-13T18:56:18.931Z,10.30
2023-04-13T19:01:40.904Z,8.13
2023-04-13T19:07:02.826Z,11.40
2023-04-13T19:12:24.666Z,7.03
2023-04-13T19:17:47.268Z,8.38
2023-04-13T19:23:09.270Z,6.82
2023-04-13T19:28:31.330Z,6.13
2023-04-13T19:33:53.575Z,27.55
2023-04-13T19:39:15.926Z,28.55
2023-04-13T19:44:37.819Z,23.33
2023-04-13T19:49:59.976Z,24.67
2023-04-13T19:55:21.881Z,21.73
2023-04-13T20:00:47.845Z,26.75
2023-04-13T20:06:10.108Z,25.17
2023-04-13T20:11:31.909Z,15.48
2023-04-13T20:16:53.829Z,19.52
2023-04-13T20:22:18.583Z,34.42
2023-04-13T20:27:42.349Z,24.70
2023-04-13T20:33:06.878Z,19.77
2023-04-13T20:38:30.254Z,26.57
2023-04-13T20:43:52.508Z,20.15
2023-04-13T20:49:14.440Z,27.55
2023-04-13T20:54:36.650Z,21.25
2023-04-13T20:59:58.617Z,21.77
2023-04-13T21:05:22.525Z,17.45
2023-04-13T21:10:44.502Z,14.98
2023-04-13T21:16:07.147Z,6.20
2023-04-13T21:21:29.022Z,16.30
2023-04-13T21:26:51.249Z,9.23
2023-04-13T21:32:13.964Z,14.52
2023-04-13T21:37:35.954Z,15.50
2023-04-13T21:42:57.819Z,8.25
2023-04-13T21:48:19.647Z,8.38
2023-04-13T21:53:41.492Z,7.00
2023-04-13T21:59:03.534Z,6.90
2023-04-13T22:04:25.535Z,7.25
2023-04-13T22:09:47.626Z,11.95
2023-04-13T22:15:10.000Z,3.92
2023-04-13T22:20:31.838Z,4.85
2023-04-13T22:26:01.933Z,3.40
2023-04-13T22:31:23.828Z,8.10
2023-04-13T22:36:45.624Z,3.72
2023-04-13T22:42:07.462Z,3.35
2023-04-13T22:47:29.288Z,3.83
2023-04-13T22:52:53.435Z,4.60
2023-04-13T22:58:15.232Z,6.95
2023-04-13T23:03:37.368Z,4.68
2023-04-13T23:08:59.703Z,3.13
2023-04-13T23:14:22.873Z,3.50
2023-04-13T23:19:44.668Z,3.72
2023-04-13T23:25:06.764Z,7.00
2023-04-13T23:30:28.638Z,3.97
2023-04-13T23:35:53.364Z,3.42
2023-04-13T23:41:15.375Z,3.80
2023-04-13T23:46:37.431Z,5.00
2023-04-13T23:51:59.283Z,3.80
2023-04-13T23:57:21.518Z,1.90
